createdAt,value
2024-02-26T00:01:51.569Z,4.24
2024-02-26T00:04:18.232Z,4.27
2024-02-26T00:06:45.223Z,6.21
2024-02-26T00:09:12.008Z,4.47
2024-02-26T00:11:39.256Z,6.07
2024-02-26T00:14:06.175Z,4.84
2024-02-26T00:16:32.852Z,4.63
2024-02-26T00:19:01.136Z,3.74
2024-02-26T00:21:29.293Z,4.57
2024-02-26T00:23:55.975Z,5.80
2024-02-26T00:26:22.654Z,6.08
2024-02-26T00:28:49.256Z,6.11
2024-02-26T00:31:15.984Z,6.47
2024-02-26T00:33:42.802Z,6.50
2024-02-26T00:36:10.896Z,6.49
2024-02-26T00:38:38.224Z,6.46
2024-02-26T00:41:04.871Z,6.26
2024-02-26T00:43:31.510Z,6.40
2024-02-26T00:45:58.216Z,6.43
2024-02-26T00:48:26.921Z,6.50
2024-02-26T00:50:53.664Z,6.40
2024-02-26T00:53:21.680Z,7.45
2024-02-26T00:55:48.309Z,6.67
2024-02-26T00:58:15.259Z,6.59
2024-02-26T01:00:42.003Z,7.55
2024-02-26T01:03:08.810Z,7.11
2024-02-26T01:05:35.569Z,6.72
2024-02-26T01:08:02.395Z,6.59
2024-02-26T01:10:30.462Z,6.78
2024-02-26T01:12:57.178Z,6.94
2024-02-26T01:15:25.035Z,6.73
2024-02-26T01:17:52.427Z,6.73
2024-02-26T01:20:19.226Z,7.46
2024-02-26T01:22:45.950Z,7.13
2024-02-26T01:25:13.379Z,6.84
2024-02-26T01:27:43.639Z,6.65
2024-02-26T01:30:11.697Z,6.66
2024-02-26T01:32:38.446Z,7.14
2024-02-26T01:35:06.336Z,6.72
2024-02-26T01:37:33.075Z,6.60
2024-02-26T01:39:59.736Z,6.51
2024-02-26T01:42:26.549Z,6.45
2024-02-26T01:44:54.582Z,7.05
2024-02-26T01:47:21.295Z,7.05
2024-02-26T01:49:48.768Z,7.07
2024-02-26T01:52:16.823Z,6.98
2024-02-26T01:54:46.269Z,6.84
2024-02-26T01:57:13.690Z,6.67
2024-02-26T01:59:41.308Z,6.67
2024-02-26T02:02:11.231Z,6.97
2024-02-26T02:04:38.368Z,6.99
2024-02-26T02:07:06.077Z,7.49
2024-02-26T02:09:33.493Z,7.06
2024-02-26T02:12:01.422Z,6.76
2024-02-26T02:14:28.153Z,7.61
2024-02-26T02:16:54.748Z,7.63
2024-02-26T02:19:22.722Z,7.26
2024-02-26T02:21:50.731Z,6.72
2024-02-26T02:24:17.452Z,7.14
2024-02-26T02:26:44.194Z,6.73
2024-02-26T02:29:11.849Z,6.65
2024-02-26T02:31:38.813Z,7.79
2024-02-26T02:34:05.772Z,7.10
2024-02-26T02:36:33.666Z,7.07
2024-02-26T02:39:01.785Z,6.92
2024-02-26T02:41:30.918Z,7.12
2024-02-26T02:43:57.635Z,7.22
2024-02-26T02:46:24.269Z,7.02
2024-02-26T02:48:51.293Z,7.11
2024-02-26T02:51:18.175Z,7.13
2024-02-26T02:53:44.886Z,7.38
2024-02-26T02:56:13.492Z,7.04
2024-02-26T02:58:40.217Z,6.92
2024-02-26T03:01:06.947Z,6.68
2024-02-26T03:03:33.600Z,6.67
2024-02-26T03:06:00.417Z,6.84
2024-02-26T03:08:27.285Z,7.24
2024-02-26T03:10:54.224Z,6.95
2024-02-26T03:13:22.421Z,7.72
2024-02-26T03:15:49.108Z,7.40
2024-02-26T03:18:15.922Z,6.79
2024-02-26T03:20:42.618Z,6.97
2024-02-26T03:23:12.973Z,7.19
2024-02-26T03:25:39.847Z,6.95
2024-02-26T03:28:06.851Z,7.12
2024-02-26T03:30:35.630Z,6.91
2024-02-26T03:33:02.452Z,7.03
2024-02-26T03:35:29.181Z,6.76
2024-02-26T03:37:55.798Z,7.10
2024-02-26T03:40:22.511Z,7.53
2024-02-26T03:42:49.204Z,7.42
2024-02-26T03:45:15.895Z,7.84
2024-02-26T03:47:43.993Z,7.69
2024-02-26T03:50:10.817Z,7.54
2024-02-26T03:52:37.755Z,7.69
2024-02-26T03:55:05.025Z,7.55
2024-02-26T03:57:31.676Z,7.34
2024-02-26T03:59:58.387Z,6.94
2024-02-26T04:02:26.565Z,6.86
2024-02-26T04:04:54.562Z,6.77
2024-02-26T04:07:21.360Z,6.17
2024-02-26T04:09:48.038Z,6.46
2024-02-26T04:12:15.629Z,5.70
2024-02-26T04:14:42.519Z,6.25
2024-02-26T04:17:09.345Z,6.54
2024-02-26T04:19:36.152Z,5.87
2024-02-26T04:22:04.674Z,5.97
2024-02-26T04:24:31.346Z,6.42
2024-02-26T04:26:58.121Z,5.27
2024-02-26T04:29:24.749Z,4.90
2024-02-26T04:31:51.395Z,5.60
2024-02-26T04:34:18.236Z,6.41
2024-02-26T04:36:44.956Z,5.46
2024-02-26T04:39:12.928Z,6.36
2024-02-26T04:41:39.589Z,6.19
2024-02-26T04:44:06.408Z,4.27
2024-02-26T04:46:33.050Z,6.03
2024-02-26T04:48:59.871Z,5.54
2024-02-26T04:51:27.128Z,6.04
2024-02-26T04:53:54.862Z,6.48
2024-02-26T04:56:23.064Z,6.33
2024-02-26T04:58:49.688Z,5.95
2024-02-26T05:01:18.090Z,5.23
2024-02-26T05:03:45.179Z,5.84
2024-02-26T05:06:12.099Z,6.09
2024-02-26T05:08:39.764Z,6.45
2024-02-26T05:11:07.130Z,5.35
2024-02-26T05:13:35.162Z,6.10
2024-02-26T05:16:01.830Z,5.85
2024-02-26T05:18:29.023Z,5.15
2024-02-26T05:20:55.746Z,5.07
2024-02-26T05:23:24.140Z,6.24
2024-02-26T05:25:50.956Z,5.04
2024-02-26T05:28:17.674Z,4.94
2024-02-26T05:30:45.703Z,5.33
2024-02-26T05:33:14.391Z,5.93
2024-02-26T05:35:42.840Z,4.58
2024-02-26T05:38:09.433Z,5.93
2024-02-26T05:40:36.112Z,5.82
2024-02-26T05:43:02.721Z,6.26
2024-02-26T05:45:29.451Z,6.34
2024-02-26T05:47:57.695Z,6.08
2024-02-26T05:50:24.334Z,6.46
2024-02-26T05:52:50.910Z,6.02
2024-02-26T05:55:17.582Z,6.32
2024-02-26T05:57:44.228Z,6.88
2024-02-26T06:00:15.549Z,6.42
2024-02-26T06:02:42.797Z,6.25
2024-02-26T06:05:11.034Z,6.47
2024-02-26T06:07:37.654Z,6.40
2024-02-26T06:10:05.897Z,6.17
2024-02-26T06:12:32.702Z,6.36
2024-02-26T06:15:02.115Z,6.35
2024-02-26T06:17:29.356Z,6.27
2024-02-26T06:19:56.184Z,6.02
2024-02-26T06:22:24.175Z,5.84
2024-02-26T06:24:50.789Z,6.30
2024-02-26T06:27:17.473Z,6.32
2024-02-26T06:29:44.311Z,6.30
2024-02-26T06:32:11.097Z,6.09
2024-02-26T06:34:39.524Z,6.21
2024-02-26T06:37:06.633Z,6.30
2024-02-26T06:39:35.042Z,6.19
2024-02-26T06:42:02.619Z,6.25
2024-02-26T06:44:35.462Z,6.33
2024-02-26T06:47:02.778Z,5.19
2024-02-26T06:49:30.206Z,5.13
2024-02-26T06:51:57.146Z,6.06
2024-02-26T06:54:23.867Z,6.12
2024-02-26T06:56:51.897Z,6.11
2024-02-26T06:59:18.619Z,6.11
2024-02-26T07:01:45.319Z,6.27
2024-02-26T07:04:12.273Z,6.29
2024-02-26T07:06:39.128Z,5.83
2024-02-26T07:09:05.985Z,5.97
2024-02-26T07:11:32.680Z,6.63
2024-02-26T07:14:02.033Z,6.58
2024-02-26T07:16:28.737Z,6.46
2024-02-26T07:18:55.444Z,6.56
2024-02-26T07:21:22.453Z,6.45
2024-02-26T07:23:49.203Z,6.57
2024-02-26T07:26:16.060Z,6.40
2024-02-26T07:28:42.676Z,6.42
2024-02-26T07:31:10.660Z,6.64
2024-02-26T07:33:37.687Z,6.96
2024-02-26T07:36:04.940Z,6.52
2024-02-26T07:38:41.877Z,7.26
2024-02-26T07:41:10.379Z,6.93
2024-02-26T07:43:37.082Z,6.62
2024-02-26T07:46:04.007Z,7.20
2024-02-26T07:48:32.185Z,8.12
2024-02-26T07:51:01.232Z,6.83
2024-02-26T07:53:27.946Z,7.05
2024-02-26T07:55:54.602Z,8.00
2024-02-26T07:58:21.290Z,6.57
2024-02-26T08:00:47.989Z,7.62
2024-02-26T08:03:17.196Z,7.46
2024-02-26T08:05:45.501Z,7.31
2024-02-26T08:08:12.251Z,6.89
2024-02-26T08:10:39.005Z,6.90
2024-02-26T08:13:08.598Z,7.82
2024-02-26T08:15:36.550Z,7.93
2024-02-26T08:18:04.694Z,7.30
2024-02-26T08:20:32.220Z,8.50
2024-02-26T08:23:00.198Z,8.17
2024-02-26T08:25:27.632Z,8.25
2024-02-26T08:27:54.284Z,8.95
2024-02-26T08:30:21.057Z,8.77
2024-02-26T08:32:51.726Z,7.30
2024-02-26T08:35:20.036Z,7.91
2024-02-26T08:37:47.490Z,8.86
2024-02-26T08:40:16.130Z,7.27
2024-02-26T08:42:43.272Z,7.97
2024-02-26T08:45:10.873Z,8.64
2024-02-26T08:47:37.819Z,7.99
2024-02-26T08:50:05.197Z,8.70
2024-02-26T08:52:31.839Z,8.18
2024-02-26T08:54:59.008Z,8.20
2024-02-26T08:57:30.169Z,8.86
2024-02-26T08:59:56.906Z,8.54
2024-02-26T09:02:23.599Z,8.00
2024-02-26T09:04:52.131Z,8.54
2024-02-26T09:07:18.998Z,9.01
2024-02-26T09:09:45.821Z,7.78
2024-02-26T09:12:12.730Z,7.96
2024-02-26T09:14:40.799Z,9.02
2024-02-26T09:17:08.670Z,7.54
2024-02-26T09:19:35.460Z,8.56
2024-02-26T09:22:02.167Z,8.70
2024-02-26T09:24:28.954Z,8.11
2024-02-26T09:26:56.381Z,8.96
2024-02-26T09:29:23.074Z,9.46
2024-02-26T09:31:51.050Z,8.84
2024-02-26T09:34:17.765Z,9.28
2024-02-26T09:36:44.881Z,8.69
2024-02-26T09:39:13.200Z,8.81
2024-02-26T09:41:40.408Z,8.25
2024-02-26T09:44:08.265Z,8.92
2024-02-26T09:46:35.051Z,8.30
2024-02-26T09:49:03.800Z,8.18
2024-02-26T09:51:30.922Z,10.09
2024-02-26T09:54:02.735Z,10.38
2024-02-26T09:56:31.275Z,9.79
2024-02-26T09:58:59.378Z,9.48
2024-02-26T10:01:26.714Z,9.84
2024-02-26T10:03:57.937Z,11.24
2024-02-26T10:06:28.290Z,10.27
2024-02-26T10:08:56.811Z,10.87
2024-02-26T10:11:24.698Z,8.57
2024-02-26T10:13:51.365Z,9.36
2024-02-26T10:16:18.139Z,9.01
2024-02-26T10:21:19.433Z,10.24
2024-02-26T10:23:48.720Z,9.59
2024-02-26T10:26:16.521Z,9.98
2024-02-26T10:28:44.599Z,10.24
2024-02-26T10:31:11.789Z,9.24
2024-02-26T10:33:43.151Z,9.64
2024-02-26T10:36:10.807Z,8.37
2024-02-26T10:38:38.596Z,8.74
2024-02-26T10:41:07.745Z,8.99
2024-02-26T10:43:34.362Z,9.19
2024-02-26T10:46:01.027Z,8.35
2024-02-26T10:48:27.867Z,10.06
2024-02-26T10:50:54.721Z,9.21
2024-02-26T10:53:22.736Z,11.81
2024-02-26T10:55:53.322Z,9.07
2024-02-26T10:58:22.839Z,12.17
2024-02-26T11:00:51.410Z,11.09
2024-02-26T11:03:21.136Z,11.36
2024-02-26T11:05:49.163Z,14.31
2024-02-26T11:08:16.835Z,11.77
2024-02-26T11:10:44.326Z,13.83
2024-02-26T11:13:15.123Z,13.21
2024-02-26T11:15:44.789Z,15.18
2024-02-26T11:18:11.723Z,14.86
2024-02-26T11:20:41.552Z,14.09
2024-02-26T11:23:08.250Z,16.33
2024-02-26T11:25:37.466Z,17.24
2024-02-26T11:28:07.302Z,16.98
2024-02-26T11:30:37.048Z,14.94
2024-02-26T11:33:07.545Z,14.18
2024-02-26T11:35:35.171Z,12.63
2024-02-26T11:38:02.509Z,11.05
2024-02-26T11:40:29.454Z,12.36
2024-02-26T11:42:56.131Z,14.37
2024-02-26T11:45:52.987Z,11.95
2024-02-26T11:48:25.627Z,12.66
2024-02-26T11:50:54.145Z,13.12
2024-02-26T11:53:21.971Z,13.93
2024-02-26T11:55:49.376Z,13.87
2024-02-26T11:58:16.193Z,13.51
2024-02-26T12:00:43.594Z,12.56
2024-02-26T12:03:12.139Z,14.23
2024-02-26T12:05:40.322Z,14.37
2024-02-26T12:08:09.524Z,13.19
2024-02-26T12:10:37.298Z,12.95
2024-02-26T12:13:07.012Z,12.63
2024-02-26T12:15:36.619Z,12.45
2024-02-26T12:18:03.839Z,12.58
2024-02-26T12:20:31.024Z,12.58
2024-02-26T12:22:59.192Z,11.47
2024-02-26T12:25:29.877Z,12.40
2024-02-26T12:27:56.959Z,12.23
2024-02-26T12:30:24.518Z,11.34
2024-02-26T12:32:52.544Z,10.42
2024-02-26T12:35:19.822Z,9.35
2024-02-26T12:37:47.897Z,9.98
2024-02-26T12:40:15.878Z,12.49
2024-02-26T12:42:42.692Z,13.26
2024-02-26T12:45:12.589Z,13.31
2024-02-26T12:47:39.461Z,11.20
2024-02-26T12:50:09.610Z,11.85
2024-02-26T12:52:40.119Z,12.23
2024-02-26T12:55:10.745Z,13.24
2024-02-26T12:57:39.887Z,13.83
2024-02-26T13:00:10.541Z,13.82
2024-02-26T13:02:40.739Z,13.63
2024-02-26T13:05:09.033Z,13.64
2024-02-26T13:07:36.188Z,13.46
2024-02-26T13:10:03.099Z,13.05
2024-02-26T13:12:30.246Z,11.99
2024-02-26T13:15:01.763Z,11.07
2024-02-26T13:17:32.244Z,10.88
2024-02-26T13:19:59.017Z,10.87
2024-02-26T13:22:25.782Z,11.05
2024-02-26T13:24:56.180Z,11.37
2024-02-26T13:27:23.540Z,11.60
2024-02-26T13:29:50.237Z,11.24
2024-02-26T13:32:18.238Z,10.94
2024-02-26T13:34:45.063Z,10.55
2024-02-26T13:37:11.760Z,10.09
2024-02-26T13:39:41.983Z,10.36
2024-02-26T13:42:09.367Z,10.01
2024-02-26T13:44:40.521Z,10.14
2024-02-26T13:47:07.347Z,9.97
2024-02-26T13:49:35.368Z,9.73
2024-02-26T13:52:02.154Z,9.76
2024-02-26T13:54:28.880Z,10.07
2024-02-26T13:56:55.625Z,10.03
2024-02-26T13:59:22.287Z,9.95
2024-02-26T14:01:48.888Z,10.97
2024-02-26T14:04:15.727Z,11.25
2024-02-26T14:06:44.083Z,11.20
2024-02-26T14:09:10.882Z,11.21
2024-02-26T14:11:37.595Z,10.86
2024-02-26T14:14:04.262Z,11.14
2024-02-26T14:16:32.548Z,11.19
2024-02-26T14:18:59.761Z,11.01
2024-02-26T14:21:28.316Z,10.37
2024-02-26T14:23:56.886Z,10.44
2024-02-26T14:26:23.777Z,9.77
2024-02-26T14:28:50.581Z,10.33
2024-02-26T14:31:18.820Z,10.75
2024-02-26T14:33:46.177Z,10.51
2024-02-26T14:36:13.313Z,10.79
2024-02-26T14:38:40.598Z,10.64
2024-02-26T14:41:08.546Z,10.10
2024-02-26T14:43:36.479Z,9.92
2024-02-26T14:46:03.414Z,9.78
2024-02-26T14:48:31.239Z,9.55
2024-02-26T14:50:58.304Z,9.46
2024-02-26T14:53:25.231Z,9.57
2024-02-26T14:55:51.887Z,9.51
2024-02-26T14:58:20.570Z,9.58
2024-02-26T15:00:47.382Z,9.56
2024-02-26T15:03:14.249Z,9.87
2024-02-26T15:05:40.966Z,10.09
2024-02-26T15:08:10.365Z,10.10
2024-02-26T15:10:37.124Z,10.17
2024-02-26T15:13:04.666Z,10.30
2024-02-26T15:15:32.801Z,10.48
2024-02-26T15:17:59.500Z,10.47
2024-02-26T15:20:26.213Z,10.55
2024-02-26T15:22:52.795Z,10.56
2024-02-26T15:25:20.529Z,10.24
2024-02-26T15:27:47.220Z,10.17
2024-02-26T15:30:14.724Z,10.40
2024-02-26T15:32:44.239Z,10.48
2024-02-26T15:35:11.044Z,10.43
2024-02-26T15:37:37.734Z,10.37
2024-02-26T15:40:07.880Z,9.93
2024-02-26T15:42:34.617Z,9.67
2024-02-26T15:45:01.582Z,9.56
2024-02-26T15:47:28.285Z,9.60
2024-02-26T15:49:56.497Z,9.67
2024-02-26T15:52:23.192Z,9.84
2024-02-26T15:54:49.945Z,9.84
2024-02-26T15:57:18.425Z,9.91
2024-02-26T15:59:45.115Z,9.90
2024-02-26T16:02:11.720Z,9.71
2024-02-26T16:04:38.611Z,9.74
2024-02-26T16:07:11.619Z,9.71
2024-02-26T16:09:38.329Z,9.71
2024-02-26T16:12:10.295Z,9.63
2024-02-26T16:14:45.171Z,9.66
2024-02-26T16:17:17.357Z,9.58
2024-02-26T16:19:44.369Z,9.53
2024-02-26T16:22:12.673Z,9.65
2024-02-26T16:24:39.421Z,9.50
2024-02-26T16:27:06.278Z,9.23
2024-02-26T16:29:32.980Z,9.03
2024-02-26T16:31:59.592Z,9.18
2024-02-26T16:34:26.318Z,9.52
2024-02-26T16:36:53.093Z,9.59
2024-02-26T16:39:21.142Z,9.50
2024-02-26T16:41:47.811Z,9.52
2024-02-26T16:44:14.556Z,9.49
2024-02-26T16:46:41.236Z,9.54
2024-02-26T16:49:08.997Z,9.36
2024-02-26T16:51:38.075Z,9.52
2024-02-26T16:54:05.050Z,9.44
2024-02-26T16:56:33.086Z,9.49
2024-02-26T16:58:59.706Z,9.62
2024-02-26T17:01:26.408Z,9.15
2024-02-26T17:03:53.039Z,9.29
2024-02-26T17:06:24.352Z,9.37
2024-02-26T17:08:53.542Z,8.34
2024-02-26T17:11:20.907Z,8.56
2024-02-26T17:13:49.172Z,9.21
2024-02-26T17:16:16.399Z,9.29
2024-02-26T17:18:44.297Z,9.37
2024-02-26T17:21:11.057Z,9.34
2024-02-26T17:23:38.183Z,9.42
2024-02-26T17:26:07.709Z,9.44
2024-02-26T17:28:36.846Z,9.48
2024-02-26T17:31:04.962Z,9.54
2024-02-26T17:33:31.806Z,9.52
2024-02-26T17:35:58.512Z,9.44
2024-02-26T17:38:25.216Z,9.51
2024-02-26T17:40:51.837Z,9.58
2024-02-26T17:43:19.285Z,9.62
2024-02-26T17:45:46.088Z,9.63
2024-02-26T17:48:15.216Z,9.65
2024-02-26T17:50:42.085Z,9.62
2024-02-26T17:53:08.907Z,9.43
2024-02-26T17:55:35.488Z,9.39
2024-02-26T17:58:02.139Z,9.40
2024-02-26T18:00:29.885Z,9.36
2024-02-26T18:02:56.646Z,9.17
2024-02-26T18:05:24.954Z,9.32
2024-02-26T18:07:52.110Z,9.45
2024-02-26T18:10:23.670Z,9.28
2024-02-26T18:12:50.304Z,9.29
2024-02-26T18:15:17.022Z,9.36
2024-02-26T18:17:43.687Z,8.89
2024-02-26T18:20:12.102Z,8.24
2024-02-26T18:22:40.067Z,8.12
2024-02-26T18:25:07.285Z,8.95
2024-02-26T18:27:36.438Z,9.12
2024-02-26T18:30:03.981Z,9.26
2024-02-26T18:32:30.833Z,9.30
2024-02-26T18:34:57.623Z,9.28
2024-02-26T18:37:24.310Z,9.27
2024-02-26T18:39:52.472Z,9.34
2024-02-26T18:42:20.703Z,9.39
2024-02-26T18:44:47.403Z,9.24
2024-02-26T18:47:14.107Z,9.23
2024-02-26T18:49:41.545Z,9.32
2024-02-26T18:52:08.710Z,9.34
2024-02-26T18:54:37.563Z,9.29
2024-02-26T18:57:06.268Z,9.12
2024-02-26T18:59:32.909Z,9.16
2024-02-26T19:01:59.593Z,9.23
2024-02-26T19:04:26.284Z,9.05
2024-02-26T19:06:55.020Z,9.28
2024-02-26T19:09:21.779Z,9.21
2024-02-26T19:11:49.968Z,9.24
2024-02-26T19:14:19.358Z,9.31
2024-02-26T19:16:45.950Z,9.32
2024-02-26T19:19:12.731Z,9.17
2024-02-26T19:21:39.667Z,9.24
2024-02-26T19:24:07.705Z,9.27
2024-02-26T19:26:35.078Z,8.99
2024-02-26T19:29:05.049Z,8.04
2024-02-26T19:31:35.169Z,7.90
2024-02-26T19:34:02.456Z,8.84
2024-02-26T19:36:29.274Z,8.41
2024-02-26T19:38:55.961Z,8.95
2024-02-26T19:41:22.750Z,9.10
2024-02-26T19:43:49.356Z,9.16
2024-02-26T19:46:16.108Z,8.99
2024-02-26T19:48:44.226Z,9.04
2024-02-26T19:51:16.809Z,8.54
2024-02-26T19:53:43.533Z,9.01
2024-02-26T19:56:10.293Z,9.11
2024-02-26T19:58:36.888Z,7.63
2024-02-26T20:01:03.710Z,6.25
2024-02-26T20:03:30.432Z,8.46
2024-02-26T20:05:58.483Z,8.78
2024-02-26T20:08:25.168Z,8.95
2024-02-26T20:10:52.807Z,8.86
2024-02-26T20:13:21.124Z,8.89
2024-02-26T20:15:48.432Z,8.84
2024-02-26T20:18:15.118Z,8.96
2024-02-26T20:20:43.463Z,8.91
2024-02-26T20:23:11.470Z,9.03
2024-02-26T20:25:39.384Z,8.97
2024-02-26T20:28:06.635Z,8.87
2024-02-26T20:30:34.266Z,8.88
2024-02-26T20:33:01.190Z,8.96
2024-02-26T20:35:27.983Z,8.93
2024-02-26T20:37:54.609Z,8.97
2024-02-26T20:40:22.562Z,8.81
2024-02-26T20:42:49.442Z,8.84
2024-02-26T20:45:16.513Z,8.89
2024-02-26T20:47:45.075Z,8.85
2024-02-26T20:50:11.864Z,7.27
2024-02-26T20:52:38.475Z,8.48
2024-02-26T20:55:06.976Z,8.66
2024-02-26T20:57:35.066Z,8.67
2024-02-26T21:00:01.911Z,7.07
2024-02-26T21:02:34.014Z,5.19
2024-02-26T21:05:03.451Z,7.82
2024-02-26T21:07:31.050Z,8.41
2024-02-26T21:09:58.026Z,8.60
2024-02-26T21:12:25.639Z,8.62
2024-02-26T21:14:54.883Z,8.55
2024-02-26T21:17:21.619Z,8.54
2024-02-26T21:19:48.346Z,8.07
2024-02-26T21:22:15.090Z,8.59
2024-02-26T21:24:41.961Z,8.48
2024-02-26T21:27:08.735Z,8.45
2024-02-26T21:29:36.964Z,8.51
2024-02-26T21:32:05.966Z,8.19
2024-02-26T21:34:32.672Z,7.50
2024-02-26T21:36:59.440Z,5.39
2024-02-26T21:39:26.119Z,7.66
2024-02-26T21:41:52.884Z,8.25
2024-02-26T21:44:19.544Z,8.35
2024-02-26T21:46:47.949Z,8.25
2024-02-26T21:49:16.571Z,8.24
2024-02-26T21:51:45.003Z,8.29
2024-02-26T21:54:12.591Z,8.33
2024-02-26T21:56:39.610Z,8.20
2024-02-26T21:59:07.704Z,8.28
2024-02-26T22:01:34.648Z,8.29
2024-02-26T22:04:01.417Z,8.34
2024-02-26T22:06:29.672Z,8.34
2024-02-26T22:08:56.639Z,8.24
2024-02-26T22:11:24.326Z,8.26
2024-02-26T22:13:51.571Z,8.33
2024-02-26T22:16:18.220Z,8.39
2024-02-26T22:18:46.026Z,6.25
2024-02-26T22:21:13.170Z,3.82
2024-02-26T22:23:41.364Z,6.39
2024-02-26T22:26:08.039Z,7.67
2024-02-26T22:28:34.689Z,7.84
2024-02-26T22:31:01.623Z,6.08
2024-02-26T22:33:28.636Z,7.67
2024-02-26T22:35:55.458Z,7.88
2024-02-26T22:38:22.155Z,7.95
2024-02-26T22:40:50.111Z,7.32
2024-02-26T22:43:16.734Z,7.84
2024-02-26T22:45:43.374Z,7.91
2024-02-26T22:48:10.622Z,7.87
2024-02-26T22:50:37.615Z,7.91
2024-02-26T22:53:04.493Z,7.99
2024-02-26T22:55:31.140Z,7.96
2024-02-26T22:57:59.099Z,7.91
2024-02-26T23:00:27.930Z,7.95
2024-02-26T23:02:55.033Z,7.97
2024-02-26T23:05:23.373Z,7.53
2024-02-26T23:07:50.235Z,7.83
2024-02-26T23:10:17.116Z,7.89
2024-02-26T23:12:44.348Z,7.89
2024-02-26T23:15:12.984Z,7.80
2024-02-26T23:17:40.000Z,7.80
2024-02-26T23:20:11.237Z,7.87
2024-02-26T23:22:38.864Z,7.20
2024-02-26T23:25:08.790Z,7.66
2024-02-26T23:27:35.799Z,7.78
2024-02-26T23:30:02.985Z,7.71
2024-02-26T23:32:31.122Z,7.86
2024-02-26T23:34:58.004Z,7.88
2024-02-26T23:37:24.665Z,7.94
2024-02-26T23:39:51.300Z,7.35
2024-02-26T23:42:18.038Z,6.70
2024-02-26T23:44:44.627Z,7.62
2024-02-26T23:47:11.233Z,7.78
2024-02-26T23:49:39.163Z,7.78
2024-02-26T23:52:06.010Z,7.69
2024-02-26T23:54:32.682Z,7.71
2024-02-26T23:56:59.397Z,7.73
2024-02-26T23:59:25.999Z,7.76
